Time;durP1;ratioP1;P1;durP2;ratioP2;P2;SDS_P1;SDS_P2;PMS_P1;PMS_P2;Temp;Humidity;BMP_temperature;BMP_pressure;BME280_temperature;BME280_humidity;BME280_pressure;Samples;Min_cycle;Max_cycle;Signal;HPM_P1;HPM_P2
2022/06/01 00:00:04;;;;;;;31.70;8.73;;;;;;;13.09;100.00;97769.00;4945440;28;20027;-54
2022/06/01 00:02:30;;;;;;;25.15;7.78;;;;;;;13.36;100.00;97759.72;4945994;28;20027;-55
2022/06/01 00:04:55;;;;;;;20.38;6.13;;;;;;;13.47;100.00;97775.66;4949280;28;20045;-55
2022/06/01 00:07:20;;;;;;;21.15;6.07;;;;;;;13.01;100.00;97772.97;4945007;28;20123;-56
2022/06/01 00:09:46;;;;;;;18.52;6.70;;;;;;;12.81;100.00;97777.50;4947744;28;20085;-55
2022/06/01 00:12:11;;;;;;;22.95;6.78;;;;;;;12.82;100.00;97768.72;4947078;28;20074;-55
2022/06/01 00:14:37;;;;;;;24.67;7.93;;;;;;;12.89;100.00;97774.47;4947547;28;20833;-55
2022/06/01 00:17:02;;;;;;;21.65;6.60;;;;;;;12.99;100.00;97769.59;4944940;28;20050;-55
2022/06/01 00:19:28;;;;;;;21.08;6.68;;;;;;;12.40;100.00;97770.06;4948134;28;20031;-56
2022/06/01 00:22:11;;;;;;;24.65;7.80;;;;;;;12.20;100.00;97768.47;4946422;28;20063;-55
2022/06/01 00:24:38;;;;;;;28.73;8.02;;;;;;;12.07;100.00;97768.25;4947639;28;20038;-54
2022/06/01 00:27:08;;;;;;;29.88;8.45;;;;;;;11.69;100.00;97768.38;4947208;28;20783;-55
2022/06/01 00:29:33;;;;;;;26.45;8.65;;;;;;;11.56;100.00;97773.38;4947534;28;20066;-55
2022/06/01 00:31:58;;;;;;;24.92;8.48;;;;;;;11.75;100.00;97768.06;4946681;28;20046;-55
2022/06/01 00:34:24;;;;;;;24.00;7.80;;;;;;;11.82;100.00;97754.69;4947285;28;20030;-56
2022/06/01 00:36:49;;;;;;;25.67;7.65;;;;;;;12.09;100.00;97755.97;4946097;28;20038;-56
2022/06/01 00:39:15;;;;;;;26.13;7.60;;;;;;;12.24;100.00;97754.34;4945570;28;20034;-54
2022/06/01 00:41:40;;;;;;;27.00;7.03;;;;;;;12.51;100.00;97752.03;4945399;28;20031;-56
2022/06/01 00:44:06;;;;;;;21.92;7.05;;;;;;;12.53;100.00;97757.19;4948358;28;20042;-55
2022/06/01 00:46:32;;;;;;;24.95;7.40;;;;;;;12.66;100.00;97744.28;4947067;28;20091;-56
2022/06/01 00:49:11;;;;;;;23.92;7.22;;;;;;;12.40;100.00;97737.84;4945889;28;20042;-56
2022/06/01 00:51:36;;;;;;;18.60;6.28;;;;;;;12.19;100.00;97739.81;4946900;28;20418;-55
2022/06/01 00:54:03;;;;;;;22.35;6.72;;;;;;;12.56;100.00;97741.34;4947765;28;20850;-56
2022/06/01 00:56:36;;;;;;;25.10;7.07;;;;;;;12.52;100.00;97745.88;4946483;28;20050;-55
2022/06/01 00:59:05;;;;;;;21.25;5.72;;;;;;;12.79;100.00;97755.81;4945971;28;20030;-55
2022/06/01 01:01:31;;;;;;;23.70;6.95;;;;;;;12.81;100.00;97743.50;4961270;28;20825;-55
2022/06/01 01:03:59;;;;;;;23.60;6.47;;;;;;;12.99;100.00;97751.25;4947638;28;20043;-55
2022/06/01 01:06:32;;;;;;;24.05;6.80;;;;;;;12.81;100.00;97759.19;4947620;28;20039;-55
2022/06/01 01:08:58;;;;;;;23.50;7.20;;;;;;;12.45;100.00;97752.38;4947936;28;20039;-56
2022/06/01 01:11:28;;;;;;;20.33;6.30;;;;;;;13.00;100.00;97758.19;4945726;28;20039;-55
2022/06/01 01:13:54;;;;;;;17.38;6.32;;;;;;;12.73;100.00;97750.91;4946673;28;20522;-56
2022/06/01 01:16:20;;;;;;;26.02;7.35;;;;;;;13.03;100.00;97750.16;4945181;28;20040;-54
2022/06/01 01:18:47;;;;;;;23.33;6.93;;;;;;;12.85;100.00;97750.25;4945790;28;20489;-54
2022/06/01 01:21:36;;;;;;;27.20;7.72;;;;;;;12.39;100.00;97747.47;4944847;28;20097;-54
2022/06/01 01:24:23;;;;;;;19.90;6.40;;;;;;;12.40;100.00;97749.13;4946499;28;20031;-55
2022/06/01 01:26:51;;;;;;;17.02;5.25;;;;;;;12.97;100.00;97740.03;4947006;28;20050;-54
2022/06/01 01:29:30;;;;;;;20.73;5.60;;;;;;;13.58;100.00;97754.97;4946473;28;20045;-55
2022/06/01 01:31:55;;;;;;;22.50;6.57;;;;;;;12.57;100.00;97756.09;4947729;28;20130;-54
2022/06/01 01:34:20;;;;;;;22.45;7.28;;;;;;;12.56;100.00;97740.50;4946851;28;20130;-55
2022/06/01 01:36:50;;;;;;;20.30;6.63;;;;;;;12.86;100.00;97745.84;4947859;28;20073;-57
2022/06/01 01:39:16;;;;;;;20.27;6.53;;;;;;;12.93;100.00;97734.94;4946318;28;20028;-54
2022/06/01 01:41:48;;;;;;;19.90;6.32;;;;;;;12.80;100.00;97751.41;4944691;28;20144;-56
2022/06/01 01:44:19;;;;;;;21.20;6.85;;;;;;;12.80;100.00;97751.41;4947117;28;20058;-55
2022/06/01 01:46:49;;;;;;;20.80;5.50;;;;;;;13.29;100.00;97744.31;4948282;28;20043;-55
2022/06/01 01:49:16;;;;;;;19.85;6.45;;;;;;;12.93;100.00;97748.03;4947978;28;20027;-55
2022/06/01 01:51:43;;;;;;;21.13;7.28;;;;;;;12.58;100.00;97746.50;4945235;28;20061;-56
2022/06/01 01:54:23;;;;;;;21.38;7.20;;;;;;;12.82;100.00;97750.41;4946118;28;20039;-55
2022/06/01 01:57:14;;;;;;;19.63;6.30;;;;;;;12.89;100.00;97762.22;4945640;28;20046;-54
2022/06/01 01:59:51;;;;;;;20.65;6.38;;;;;;;13.29;100.00;97753.97;4945662;28;20027;-55
2022/06/01 02:02:24;;;;;;;18.02;6.20;;;;;;;12.90;100.00;97750.84;4946902;28;20043;-55
2022/06/01 02:08:22;;;;;;;20.25;6.47;;;;;;;12.59;100.00;97758.63;4944717;28;20177;-55
2022/06/01 02:13:33;;;;;;;22.58;7.20;;;;;;;12.42;100.00;97772.59;4950532;28;20036;-56
2022/06/01 02:15:59;;;;;;;23.25;7.75;;;;;;;12.44;100.00;97766.38;4949003;28;20047;-54
2022/06/01 02:18:31;;;;;;;19.02;6.82;;;;;;;12.32;100.00;97759.16;4949502;28;20027;-54
2022/06/01 02:21:08;;;;;;;22.67;7.60;;;;;;;12.03;100.00;97756.25;4948318;28;20701;-54
2022/06/01 02:23:33;;;;;;;21.77;6.40;;;;;;;12.07;100.00;97762.19;4950651;28;20121;-55
2022/06/01 02:26:01;;;;;;;22.77;7.22;;;;;;;11.98;100.00;97760.88;4949004;28;20618;-55
2022/06/01 02:28:28;;;;;;;22.10;7.70;;;;;;;11.72;100.00;97762.16;4950218;28;20022;-55
2022/06/01 02:30:55;;;;;;;24.40;8.50;;;;;;;11.80;100.00;97762.63;4948203;28;20039;-55
2022/06/01 02:33:31;;;;;;;23.45;8.27;;;;;;;11.61;100.00;97762.69;4948359;28;20087;-55
2022/06/01 02:36:01;;;;;;;25.80;8.38;;;;;;;11.56;100.00;97760.31;4947657;28;20820;-55
2022/06/01 02:38:39;;;;;;;24.30;8.63;;;;;;;11.45;100.00;97765.22;4949724;28;20035;-56
2022/06/01 02:41:05;;;;;;;23.80;7.43;;;;;;;11.67;100.00;97761.53;4948460;28;20047;-55
2022/06/01 02:43:30;;;;;;;18.98;5.47;;;;;;;12.86;100.00;97761.53;4949662;28;20217;-54
2022/06/01 02:45:56;;;;;;;23.63;8.00;;;;;;;11.53;100.00;97757.00;4948557;28;20779;-55
2022/06/01 02:48:22;;;;;;;21.77;6.75;;;;;;;12.12;100.00;97765.41;4949283;28;20038;-56
2022/06/01 02:50:47;;;;;;;24.70;8.73;;;;;;;11.51;100.00;97769.28;4947981;28;20135;-55
2022/06/01 02:53:13;;;;;;;22.35;7.55;;;;;;;11.89;100.00;97766.53;4948219;28;20035;-56
2022/06/01 02:55:38;;;;;;;25.35;8.75;;;;;;;11.78;100.00;97767.06;4949487;28;20030;-54
2022/06/01 02:58:04;;;;;;;27.55;8.20;;;;;;;11.83;100.00;97769.47;4949591;28;20031;-55
2022/06/01 03:00:37;;;;;;;19.05;6.10;;;;;;;12.07;100.00;97772.63;4948431;28;20123;-55
2022/06/01 03:03:05;;;;;;;24.92;8.98;;;;;;;11.73;100.00;97759.47;4948166;28;20089;-55
2022/06/01 03:05:34;;;;;;;20.35;7.93;;;;;;;12.00;100.00;97763.41;4948265;28;20038;-56
2022/06/01 03:08:00;;;;;;;23.75;7.18;;;;;;;12.20;100.00;97765.84;4948205;28;20492;-55
2022/06/01 03:10:26;;;;;;;17.80;5.75;;;;;;;12.23;100.00;97770.94;4949316;28;20074;-56
2022/06/01 03:12:52;;;;;;;17.98;7.20;;;;;;;12.13;100.00;97765.34;4949497;28;20031;-55
2022/06/01 03:15:19;;;;;;;20.38;7.40;;;;;;;11.99;100.00;97769.59;4948820;28;20031;-56
2022/06/01 03:17:45;;;;;;;20.15;8.05;;;;;;;11.74;100.00;97769.00;4950565;28;20059;-58
2022/06/01 03:20:13;;;;;;;26.48;8.73;;;;;;;11.30;100.00;97766.78;4945990;28;20711;-55
2022/06/01 03:22:40;;;;;;;23.17;7.80;;;;;;;11.46;100.00;97777.34;4948152;28;20022;-55
2022/06/01 03:25:08;;;;;;;20.00;5.70;;;;;;;12.47;100.00;97767.97;4948901;28;20062;-54
2022/06/01 03:27:34;;;;;;;22.23;7.90;;;;;;;12.32;100.00;97761.78;4947162;28;20033;-55
2022/06/01 03:30:00;;;;;;;30.92;9.48;;;;;;;11.64;100.00;97770.38;4946856;28;20074;-56
2022/06/01 03:32:25;;;;;;;23.13;8.10;;;;;;;12.16;100.00;97772.19;4947293;28;20181;-56
2022/06/01 03:34:51;;;;;;;23.95;7.88;;;;;;;11.98;100.00;97767.88;4947445;28;20029;-55
2022/06/01 03:37:17;;;;;;;26.60;8.35;;;;;;;11.88;100.00;97778.75;4946916;28;20400;-56
2022/06/01 03:39:42;;;;;;;22.08;7.97;;;;;;;12.03;100.00;97771.13;4946581;28;20813;-55
2022/06/01 03:42:08;;;;;;;21.90;7.20;;;;;;;12.20;100.00;97760.63;4947926;28;20046;-55
2022/06/01 03:47:17;;;;;;;17.33;5.68;;;;;;;12.28;100.00;97771.56;4947455;28;20556;-55
2022/06/01 03:49:43;;;;;;;19.85;7.32;;;;;;;12.57;100.00;97760.50;4949627;28;20035;-55
2022/06/01 03:52:10;;;;;;;24.33;8.30;;;;;;;11.67;100.00;97765.00;4948123;28;20035;-54
2022/06/01 03:54:37;;;;;;;22.15;8.10;;;;;;;11.63;100.00;97773.88;4947022;28;20033;-56
2022/06/01 03:57:03;;;;;;;21.95;8.30;;;;;;;11.48;100.00;97780.72;4946715;28;20046;-55
2022/06/01 03:59:30;;;;;;;22.95;6.82;;;;;;;11.94;100.00;97782.88;4945431;28;20030;-55
2022/06/01 04:01:55;;;;;;;24.95;8.73;;;;;;;11.55;100.00;97782.09;4946322;28;20064;-57
2022/06/01 04:04:20;;;;;;;23.42;8.23;;;;;;;11.33;100.00;97787.50;4947448;28;20038;-56
2022/06/01 04:06:46;;;;;;;23.75;8.35;;;;;;;11.53;100.00;97790.94;4947292;28;20389;-54
2022/06/01 04:09:11;;;;;;;19.50;7.57;;;;;;;11.84;100.00;97785.06;4949900;28;20022;-55
2022/06/01 04:11:37;;;;;;;19.42;7.55;;;;;;;12.38;100.00;97792.00;4949297;28;20051;-55
2022/06/01 04:14:03;;;;;;;21.77;7.70;;;;;;;13.31;100.00;97773.09;4948207;28;20034;-55
2022/06/01 04:16:28;;;;;;;20.63;6.13;;;;;;;13.61;100.00;97770.50;4947933;28;20043;-55
2022/06/01 04:18:54;;;;;;;21.33;7.22;;;;;;;13.88;100.00;97770.69;4949440;28;20113;-58
2022/06/01 04:21:24;;;;;;;18.50;6.72;;;;;;;14.30;100.00;97768.28;4947432;28;20053;-55
2022/06/01 04:23:50;;;;;;;19.60;6.55;;;;;;;13.74;100.00;97760.16;4949053;28;20679;-54
2022/06/01 04:26:16;;;;;;;20.17;7.40;;;;;;;13.28;100.00;97771.44;4945464;28;20051;-55
2022/06/01 04:28:45;;;;;;;25.55;8.30;;;;;;;13.08;100.00;97776.94;4946576;28;20096;-55
2022/06/01 04:31:10;;;;;;;21.00;7.57;;;;;;;12.75;100.00;97785.69;4946238;28;20611;-55
2022/06/01 04:33:38;;;;;;;17.60;5.47;;;;;;;13.46;100.00;97792.34;4945072;28;20038;-53
2022/06/01 04:36:05;;;;;;;20.45;7.22;;;;;;;13.20;100.00;97776.28;4946144;28;20066;-57
2022/06/01 04:38:30;;;;;;;17.35;6.07;;;;;;;13.91;100.00;97772.28;4946878;28;20121;-57
2022/06/01 04:40:55;;;;;;;18.33;6.63;;;;;;;13.67;100.00;97775.41;4946437;28;20396;-55
2022/06/01 04:43:22;;;;;;;17.80;6.22;;;;;;;14.31;100.00;97774.34;4944021;28;20031;-53
2022/06/01 04:45:51;;;;;;;16.27;6.70;;;;;;;13.86;100.00;97769.13;4945813;28;20062;-54
2022/06/01 04:48:17;;;;;;;15.82;6.00;;;;;;;14.69;100.00;97766.81;4946948;28;20098;-55
2022/06/01 04:50:42;;;;;;;18.30;7.55;;;;;;;13.94;100.00;97764.25;4947735;28;20043;-54
2022/06/01 04:53:16;;;;;;;19.67;6.88;;;;;;;14.80;100.00;97759.13;4946360;28;20035;-54
2022/06/01 04:55:43;;;;;;;21.05;7.55;;;;;;;15.30;100.00;97748.97;4946835;28;20078;-55
2022/06/01 04:58:09;;;;;;;17.30;6.57;;;;;;;16.83;100.00;97749.34;4948714;28;20141;-54
2022/06/01 05:00:35;;;;;;;16.75;6.40;;;;;;;18.11;100.00;97738.28;4947120;28;20532;-54
2022/06/01 05:03:02;;;;;;;20.38;6.88;;;;;;;17.47;100.00;97738.59;4946135;28;20023;-54
2022/06/01 05:05:28;;;;;;;15.85;6.43;;;;;;;17.73;100.00;97731.41;4948512;28;20027;-57
2022/06/01 05:07:53;;;;;;;16.45;6.18;;;;;;;18.84;100.00;97729.13;4945917;28;20078;-56
2022/06/01 05:10:21;;;;;;;16.10;6.13;;;;;;;20.25;100.00;97730.91;4946364;28;20030;-57
2022/06/01 05:12:46;;;;;;;16.75;6.30;;;;;;;20.93;100.00;97721.47;4946906;28;20063;-57
2022/06/01 05:15:12;;;;;;;16.05;6.00;;;;;;;22.04;100.00;97721.34;4945987;28;20134;-56
2022/06/01 05:17:38;;;;;;;15.73;5.90;;;;;;;22.60;99.07;97727.66;4962091;28;20061;-56
2022/06/01 05:20:04;;;;;;;24.05;6.78;;;;;;;19.79;100.00;97725.03;4945015;28;20442;-58
2022/06/01 05:22:29;;;;;;;16.23;6.43;;;;;;;19.20;100.00;97724.47;4944369;28;20031;-57
2022/06/01 05:24:55;;;;;;;16.17;5.90;;;;;;;18.77;100.00;97727.88;4947170;28;20085;-56
2022/06/01 05:27:20;;;;;;;14.40;5.53;;;;;;;21.24;100.00;97726.72;4946173;28;20467;-57
2022/06/01 05:29:46;;;;;;;18.38;6.72;;;;;;;21.69;100.00;97731.56;4945157;28;20086;-56
2022/06/01 05:32:12;;;;;;;16.63;5.32;;;;;;;21.95;100.00;97723.03;4945900;28;20043;-57
2022/06/01 05:34:37;;;;;;;13.50;5.60;;;;;;;21.53;100.00;97723.31;4945479;28;20023;-56
2022/06/01 05:37:03;;;;;;;17.23;5.57;;;;;;;22.54;94.67;97722.94;4962970;28;20469;-57
2022/06/01 05:39:29;;;;;;;18.48;5.65;;;;;;;22.68;95.46;97717.13;4945554;28;20124;-55
2022/06/01 05:41:55;;;;;;;13.60;5.90;;;;;;;23.33;73.06;97724.25;4944646;28;20113;-56
2022/06/01 05:44:20;;;;;;;10.60;5.03;;;;;;;25.06;72.44;97732.53;4945673;28;20109;-56
2022/06/01 05:46:46;;;;;;;11.15;4.82;;;;;;;24.33;69.88;97717.81;4948469;28;20059;-56
2022/06/01 05:49:13;;;;;;;13.43;4.80;;;;;;;23.09;93.68;97721.16;4949285;28;20773;-57
2022/06/01 05:51:38;;;;;;;9.88;4.53;;;;;;;22.86;77.46;97733.97;4948771;28;20049;-57
2022/06/01 05:54:04;;;;;;;11.05;4.82;;;;;;;22.47;89.31;97734.13;4950539;28;20026;-56
2022/06/01 05:56:29;;;;;;;16.65;4.95;;;;;;;23.50;79.87;97736.75;4948708;28;21098;-56
2022/06/01 05:58:54;;;;;;;14.15;4.97;;;;;;;21.21;95.95;97739.44;4951382;28;20091;-57
2022/06/01 06:01:23;;;;;;;10.50;4.95;;;;;;;23.04;87.31;97730.59;4964643;28;20404;-56
2022/06/01 06:03:51;;;;;;;13.93;5.63;;;;;;;20.43;100.00;97742.59;4949796;28;20287;-55
2022/06/01 06:06:17;;;;;;;11.93;5.22;;;;;;;20.89;100.00;97738.66;4948304;28;20050;-56
2022/06/01 06:08:55;;;;;;;12.75;5.38;;;;;;;20.70;100.00;97735.94;4950308;28;20034;-56
2022/06/01 06:11:22;;;;;;;15.00;5.50;;;;;;;21.86;100.00;97737.16;4949124;28;20042;-55
2022/06/01 06:13:47;;;;;;;10.48;4.53;;;;;;;22.48;96.38;97741.13;4949549;28;20030;-56
2022/06/01 06:16:14;;;;;;;13.02;6.28;;;;;;;23.13;85.73;97739.50;4949520;28;20073;-56
2022/06/01 06:18:40;;;;;;;12.40;4.97;;;;;;;26.41;63.75;97738.56;4949337;28;20089;-56
2022/06/01 06:21:06;;;;;;;11.55;5.07;;;;;;;24.01;68.57;97739.72;4948463;28;20035;-56
2022/06/01 06:23:32;;;;;;;12.73;4.97;;;;;;;24.21;69.57;97741.22;4951015;28;20138;-55
2022/06/01 06:25:57;;;;;;;13.02;5.38;;;;;;;27.45;58.07;97731.38;4948065;28;20414;-57
2022/06/01 06:28:23;;;;;;;9.82;3.90;;;;;;;29.08;52.50;97739.97;4949971;28;20105;-57
2022/06/01 06:30:49;;;;;;;8.38;4.18;;;;;;;26.47;52.45;97737.06;4948078;28;20066;-57
2022/06/01 06:33:14;;;;;;;10.10;4.25;;;;;;;26.73;52.69;97742.22;4948868;28;20035;-57
2022/06/01 06:35:39;;;;;;;9.68;3.60;;;;;;;27.71;51.80;97730.19;4947910;28;20035;-57
2022/06/01 06:38:05;;;;;;;13.50;6.07;;;;;;;25.17;55.96;97737.56;4949588;28;20031;-56
2022/06/01 06:40:30;;;;;;;7.38;3.50;;;;;;;27.05;53.74;97737.75;4948026;28;20066;-57
2022/06/01 06:42:56;;;;;;;10.10;3.72;;;;;;;26.20;51.89;97735.59;4949713;28;20031;-58
2022/06/01 06:45:22;;;;;;;7.28;3.35;;;;;;;23.84;61.26;97738.78;4948572;28;20031;-57
2022/06/01 06:47:48;;;;;;;11.18;3.97;;;;;;;23.52;63.10;97739.25;4951856;28;20437;-57
2022/06/01 06:50:16;;;;;;;9.60;4.07;;;;;;;22.35;75.41;97748.59;4947105;28;20114;-57
2022/06/01 06:52:41;;;;;;;10.07;3.80;;;;;;;21.64;76.33;97747.06;4946777;28;20239;-57
2022/06/01 06:55:08;;;;;;;12.02;4.45;;;;;;;22.03;77.10;97741.75;4949525;28;20042;-57
2022/06/01 06:57:34;;;;;;;8.73;4.20;;;;;;;21.68;79.30;97743.16;4947259;28;20513;-57
2022/06/01 06:59:59;;;;;;;11.65;4.63;;;;;;;22.85;72.32;97739.47;4948289;28;20396;-54
2022/06/01 07:02:25;;;;;;;13.80;4.57;;;;;;;22.81;68.31;97735.41;4947737;28;20042;-55
2022/06/01 07:04:50;;;;;;;8.60;3.78;;;;;;;23.11;70.48;97742.31;4947338;28;20030;-54
2022/06/01 07:07:16;;;;;;;10.13;4.05;;;;;;;22.89;72.61;97746.16;4949487;28;20450;-56
2022/06/01 07:09:42;;;;;;;11.90;4.30;;;;;;;22.11;76.55;97738.38;4948081;28;20082;-57
2022/06/01 07:12:08;;;;;;;17.67;3.95;;;;;;;22.23;79.44;97742.56;4949189;28;20062;-58
2022/06/01 07:14:33;;;;;;;11.85;4.22;;;;;;;22.11;75.08;97739.25;4951167;28;20027;-57
2022/06/01 07:17:00;;;;;;;10.93;4.20;;;;;;;22.46;73.92;97744.91;4949343;28;20050;-57
2022/06/01 07:19:26;;;;;;;12.45;5.07;;;;;;;23.10;71.73;97745.94;4949010;28;20117;-58
2022/06/01 07:21:51;;;;;;;17.98;8.50;;;;;;;21.91;79.34;97746.38;4946604;28;20078;-57
2022/06/01 07:24:17;;;;;;;33.08;20.88;;;;;;;22.19;79.28;97750.97;4949987;28;20154;-57
2022/06/01 07:26:44;;;;;;;14.70;6.53;;;;;;;22.81;72.70;97746.91;4947529;28;20440;-57
2022/06/01 07:29:10;;;;;;;11.55;4.75;;;;;;;22.55;74.08;97756.50;4948210;28;20039;-57
2022/06/01 07:31:36;;;;;;;10.50;4.13;;;;;;;23.19;75.21;97747.72;4947960;28;20797;-58
2022/06/01 07:34:03;;;;;;;10.98;4.35;;;;;;;22.81;78.63;97752.22;4947900;28;20031;-59
2022/06/01 07:36:29;;;;;;;9.43;4.32;;;;;;;23.47;81.54;97747.69;4949060;28;20035;-58
2022/06/01 07:44:31;;;;;;;11.20;3.95;;;;;;;25.14;69.00;97745.06;4950135;28;20115;-57
2022/06/01 07:46:57;;;;;;;9.38;3.97;;;;;;;25.03;65.34;97751.53;4949316;28;20059;-59
2022/06/01 07:49:23;;;;;;;12.55;4.68;;;;;;;25.90;60.33;97744.09;4947627;28;20070;-57
2022/06/01 07:51:48;;;;;;;11.55;5.22;;;;;;;27.57;52.04;97737.19;4948043;28;20039;-56
2022/06/01 07:54:14;;;;;;;14.43;5.30;;;;;;;27.09;51.75;97739.91;4949720;28;20539;-59
2022/06/01 07:56:40;;;;;;;10.93;4.45;;;;;;;26.94;52.20;97741.63;4947413;28;20509;-57
2022/06/01 07:59:05;;;;;;;9.65;4.20;;;;;;;24.23;58.38;97743.72;4949762;28;20046;-57
2022/06/01 08:01:34;;;;;;;10.75;4.00;;;;;;;24.81;56.15;97743.13;4946751;28;20034;-55
2022/06/01 08:04:02;;;;;;;10.48;4.03;;;;;;;26.99;52.84;97738.44;4950767;28;20158;-59
2022/06/01 08:06:29;;;;;;;14.20;8.27;;;;;;;28.16;47.45;97736.59;4946615;28;20047;-56
2022/06/01 08:08:55;;;;;;;16.33;7.75;;;;;;;28.07;47.33;97737.66;4948003;28;20034;-56
2022/06/01 08:13:06;;;;;;;9.80;3.80;;;;;;;29.66;44.28;97732.81;4946921;28;20078;-58
2022/06/01 08:14:06;;;;;;;8.63;3.85;;;;;;;29.78;42.87;97736.69;4948865;28;20035;-55
2022/06/01 08:16:31;;;;;;;8.65;3.80;;;;;;;29.42;41.83;97736.69;4948287;28;20043;-56
2022/06/01 08:18:57;;;;;;;8.30;3.60;;;;;;;27.91;43.73;97732.44;4948786;28;20031;-58
2022/06/01 08:21:22;;;;;;;10.00;4.13;;;;;;;26.70;43.60;97734.53;4945860;28;20086;-56
2022/06/01 08:23:47;;;;;;;9.65;5.75;;;;;;;26.69;43.39;97733.69;4948625;28;20527;-57
2022/06/01 08:26:13;;;;;;;8.02;3.42;;;;;;;27.98;42.99;97733.38;4945291;28;20038;-55
2022/06/01 08:28:38;;;;;;;9.65;3.15;;;;;;;29.05;41.65;97729.63;4947661;28;20407;-56
2022/06/01 08:31:03;;;;;;;8.48;3.08;;;;;;;29.41;39.37;97730.50;4946548;28;20500;-55
2022/06/01 08:33:28;;;;;;;6.25;3.00;;;;;;;30.46;38.87;97722.00;4947110;28;20035;-58
2022/06/01 08:35:55;;;;;;;7.45;3.13;;;;;;;31.18;37.33;97718.03;4946490;28;20461;-56
2022/06/01 08:38:21;;;;;;;9.07;3.08;;;;;;;30.29;37.98;97710.63;4963987;28;20034;-57
2022/06/01 08:41:14;;;;;;;5.38;2.90;;;;;;;31.02;37.28;97704.91;4945697;28;20043;-56
2022/06/01 08:43:44;;;;;;;6.55;2.83;;;;;;;31.23;36.06;97696.72;4946197;28;20114;-56
2022/06/01 08:46:12;;;;;;;5.57;2.60;;;;;;;31.72;34.89;97702.84;4946857;28;20508;-57
2022/06/01 08:48:45;;;;;;;6.57;4.57;;;;;;;31.44;34.08;97700.28;4947945;28;21083;-57
2022/06/01 08:51:11;;;;;;;7.20;3.67;;;;;;;28.78;34.74;97703.28;4945666;28;20049;-57
2022/06/01 08:53:38;;;;;;;5.38;2.75;;;;;;;28.64;37.76;97707.63;4948513;28;20031;-57
2022/06/01 08:56:17;;;;;;;5.38;2.50;;;;;;;27.50;39.05;97710.25;4947528;28;20041;-57
2022/06/01 08:58:59;;;;;;;8.02;2.90;;;;;;;26.78;38.92;97709.59;4945890;28;20535;-56
2022/06/01 09:01:27;;;;;;;5.60;2.80;;;;;;;29.95;32.95;97709.56;4945292;28;20819;-55
2022/06/01 09:04:07;;;;;;;5.25;2.50;;;;;;;29.81;32.04;97699.72;4946319;28;20073;-57
2022/06/01 09:06:40;;;;;;;5.25;2.30;;;;;;;29.61;32.44;97705.69;4947483;28;20058;-56
2022/06/01 09:09:16;;;;;;;6.00;2.65;;;;;;;30.02;36.66;97694.31;4945331;28;20121;-56
2022/06/01 09:11:44;;;;;;;7.57;2.55;;;;;;;29.23;30.77;97697.84;4947736;28;20066;-56
2022/06/01 09:14:26;;;;;;;4.57;2.30;;;;;;;29.91;28.94;97692.97;4949742;28;20058;-57
2022/06/01 09:16:57;;;;;;;6.03;2.75;;;;;;;31.17;29.13;97685.91;4946359;28;20145;-56
2022/06/01 09:19:29;;;;;;;7.53;2.72;;;;;;;28.61;32.67;97702.63;4947489;28;20022;-56
2022/06/01 09:24:42;;;;;;;6.60;2.83;;;;;;;26.42;36.65;97710.84;4946408;28;20057;-56
2022/06/01 09:27:11;;;;;;;7.35;2.80;;;;;;;25.63;37.03;97715.03;4947235;28;20948;-56
2022/06/01 09:29:46;;;;;;;8.63;3.13;;;;;;;25.25;42.55;97709.28;4947538;28;20052;-57
2022/06/01 09:32:29;;;;;;;10.15;3.05;;;;;;;24.99;42.22;97712.84;4947117;28;20062;-57
2022/06/01 09:34:59;;;;;;;9.07;3.22;;;;;;;26.38;35.49;97714.03;4944519;28;20027;-56
2022/06/01 09:37:27;;;;;;;8.00;2.75;;;;;;;29.01;32.81;97708.50;4945369;28;20539;-56
2022/06/01 09:39:59;;;;;;;7.85;2.90;;;;;;;27.43;34.51;97703.94;4944603;28;20030;-56
2022/06/01 09:42:28;;;;;;;12.52;4.78;;;;;;;26.87;35.89;97708.53;4945023;28;20695;-55
2022/06/01 09:44:59;;;;;;;7.70;2.78;;;;;;;25.88;39.63;97700.69;4946428;28;20034;-55
2022/06/01 09:47:42;;;;;;;7.45;2.67;;;;;;;25.41;38.50;97711.16;4945897;28;20074;-57
2022/06/01 09:50:20;;;;;;;8.82;3.30;;;;;;;25.51;38.00;97712.69;4945865;28;20045;-55
2022/06/01 09:52:45;;;;;;;9.07;2.92;;;;;;;25.01;42.15;97711.69;4946787;28;20054;-55
2022/06/01 09:55:21;;;;;;;9.02;2.83;;;;;;;25.18;39.14;97704.56;4945601;28;20109;-56
2022/06/01 09:58:00;;;;;;;8.63;2.92;;;;;;;26.89;41.66;97704.69;4947174;28;20110;-56
2022/06/01 10:06:17;;;;;;;9.70;2.88;;;;;;;25.80;37.82;97711.34;4946063;28;20749;-57
2022/06/01 10:08:59;;;;;;;8.30;2.95;;;;;;;27.99;39.24;97709.09;4945944;28;20070;-56
2022/06/01 10:11:30;;;;;;;;;;;;;;;27.85;35.95;97716.03;4946282;28;20043;-55
2022/06/01 10:14:08;;;;;;;7.28;2.65;;;;;;;28.57;33.38;97711.22;4947710;28;19925;-55
2022/06/01 10:16:59;;;;;;;8.50;3.05;;;;;;;27.36;37.14;97705.66;4946491;28;20556;-56
2022/06/01 10:19:33;;;;;;;6.63;2.50;;;;;;;27.58;37.92;97703.19;4946752;28;20081;-56
2022/06/01 10:22:06;;;;;;;7.13;2.70;;;;;;;25.68;38.36;97702.03;4945739;28;20037;-56
2022/06/01 10:24:38;;;;;;;9.13;3.00;;;;;;;26.07;39.03;97709.38;4944261;28;20027;-56
2022/06/01 10:27:04;;;;;;;10.13;3.20;;;;;;;25.67;41.16;97711.03;4943371;28;20051;-57
2022/06/01 10:29:37;;;;;;;11.40;3.42;;;;;;;24.93;40.25;97705.47;4945547;28;20050;-55
2022/06/01 10:32:10;;;;;;;9.02;3.72;;;;;;;24.99;39.53;97697.66;4943627;28;20035;-56
2022/06/01 10:35:09;;;;;;;7.47;2.78;;;;;;;24.78;42.51;97703.41;4948090;28;20438;-56
2022/06/01 10:37:40;;;;;;;9.05;3.30;;;;;;;24.49;45.00;97694.91;4950282;28;20133;-55
2022/06/01 10:40:17;;;;;;;10.05;3.28;;;;;;;24.70;43.33;97707.88;4950143;28;20026;-58
2022/06/01 10:45:36;;;;;;;10.70;3.15;;;;;;;24.86;39.59;97707.94;4949371;28;20201;-55
2022/06/01 10:48:11;;;;;;;14.02;4.60;;;;;;;23.97;40.29;97712.56;4947854;28;20030;-56
2022/06/01 10:50:43;;;;;;;10.68;3.00;;;;;;;24.79;39.58;97705.09;4947444;28;20035;-56
2022/06/01 10:53:15;;;;;;;9.82;3.15;;;;;;;25.02;39.50;97713.34;4965124;28;20031;-57
2022/06/01 10:55:43;;;;;;;9.48;2.90;;;;;;;25.42;38.52;97713.66;4949441;28;20093;-55
2022/06/01 10:58:16;;;;;;;8.18;2.97;;;;;;;25.50;40.93;97710.16;4950224;28;20025;-55
2022/06/01 11:00:49;;;;;;;7.93;2.75;;;;;;;25.25;38.41;97702.09;4949298;28;20039;-55
2022/06/01 11:03:29;;;;;;;9.63;3.25;;;;;;;25.56;42.37;97705.00;4949837;28;20904;-57
2022/06/01 11:06:19;;;;;;;9.90;3.10;;;;;;;25.46;41.88;97711.50;4949780;28;20487;-57
2022/06/01 11:09:02;;;;;;;11.82;3.70;;;;;;;26.55;39.02;97702.28;4948085;28;20050;-57
2022/06/01 11:11:43;;;;;;;6.57;2.50;;;;;;;27.69;38.27;97692.88;4949455;28;20560;-58
2022/06/01 11:14:18;;;;;;;7.47;2.80;;;;;;;28.30;36.74;97689.34;4950835;28;20753;-58
2022/06/01 11:16:55;;;;;;;9.40;2.90;;;;;;;27.76;34.77;97679.59;4948447;28;20038;-58
2022/06/01 11:19:48;;;;;;;7.82;2.75;;;;;;;26.89;37.10;97675.28;4946613;28;20609;-57
2022/06/01 11:22:50;;;;;;;8.70;3.20;;;;;;;26.29;41.85;97679.28;4948762;28;20591;-57
2022/06/01 11:25:20;;;;;;;14.00;6.13;;;;;;;26.73;40.59;97678.84;4947604;28;20034;-56
2022/06/01 11:27:46;;;;;;;8.90;3.00;;;;;;;26.11;34.80;97667.94;4949018;28;20054;-56
2022/06/01 11:30:25;;;;;;;8.90;2.95;;;;;;;25.95;36.57;97666.97;4946368;28;20031;-56
2022/06/01 11:32:50;;;;;;;8.43;2.60;;;;;;;26.21;35.23;97667.75;4951146;28;20041;-56
2022/06/01 11:35:22;;;;;;;9.50;4.18;;;;;;;27.25;37.22;97666.69;4949425;28;20388;-56
2022/06/01 11:38:06;;;;;;;8.45;3.58;;;;;;;27.26;38.71;97665.72;4951094;28;20026;-57
2022/06/01 11:40:59;;;;;;;22.63;13.50;;;;;;;26.59;37.82;97668.81;4948262;28;20031;-58
2022/06/01 11:43:31;;;;;;;10.43;3.75;;;;;;;25.67;39.46;97669.13;4949455;28;21103;-57
2022/06/01 11:46:12;;;;;;;9.73;4.65;;;;;;;25.31;37.44;97673.91;4945944;28;20054;-56
2022/06/01 11:48:44;;;;;;;10.50;3.63;;;;;;;26.42;39.87;97664.53;4951152;28;20484;-57
2022/06/01 11:51:12;;;;;;;7.00;2.70;;;;;;;26.07;37.78;97664.78;4948043;28;20126;-58
2022/06/01 11:53:46;;;;;;;13.10;3.80;;;;;;;26.09;36.45;97662.78;4947875;28;20514;-57
2022/06/01 11:56:36;;;;;;;9.65;2.80;;;;;;;26.28;35.31;97645.53;4947127;28;20114;-59
2022/06/01 11:59:28;;;;;;;8.95;2.92;;;;;;;27.43;35.17;97644.19;4947124;28;20062;-58